createdAt,value
2024-01-20T00:00:54.141Z,91442.31
2024-01-20T00:03:20.676Z,91445.88
2024-01-20T00:05:47.972Z,91435.19
2024-01-20T00:08:14.483Z,91444.44
2024-01-20T00:10:41.553Z,91446.56
2024-01-20T00:13:08.083Z,91450.22
2024-01-20T00:15:34.437Z,91455.88
2024-01-20T00:18:00.897Z,91457.56
2024-01-20T00:20:27.533Z,91446.75
2024-01-20T00:22:54.149Z,91461.69
2024-01-20T00:25:20.736Z,91458.25
2024-01-20T00:27:50.641Z,91458.16
2024-01-20T00:30:17.582Z,91456.03
2024-01-20T00:32:43.993Z,91452.28
2024-01-20T00:35:11.225Z,91461.28
2024-01-20T00:37:38.161Z,91461.28
2024-01-20T00:40:05.895Z,91459.63
2024-01-20T00:42:32.556Z,91458.66
2024-01-20T00:44:58.910Z,91454.88
2024-01-20T00:47:25.296Z,91460.09
2024-01-20T00:49:51.717Z,91458.34
2024-01-20T00:52:18.119Z,91461.03
2024-01-20T00:54:44.477Z,91460.06
2024-01-20T00:57:10.869Z,91463.88
2024-01-20T00:59:37.481Z,91467.28
2024-01-20T01:02:03.932Z,91472.38
2024-01-20T01:04:30.415Z,91475.47
2024-01-20T01:06:56.802Z,91475.09
2024-01-20T01:09:23.149Z,91469.50
2024-01-20T01:11:49.488Z,91468.84
2024-01-20T01:14:16.097Z,91472.63
2024-01-20T01:16:42.573Z,91469.56
2024-01-20T01:19:09.008Z,91471.91
2024-01-20T01:21:35.382Z,91473.25
2024-01-20T01:24:01.844Z,91470.50
2024-01-20T01:26:29.645Z,91473.19
2024-01-20T01:28:57.387Z,91482.34
2024-01-20T01:31:24.028Z,91479.97
2024-01-20T01:33:50.490Z,91487.00
2024-01-20T01:36:16.904Z,91490.25
2024-01-20T01:38:43.265Z,91482.53
2024-01-20T01:41:09.657Z,91497.47
2024-01-20T01:43:36.187Z,91496.31
2024-01-20T01:46:02.582Z,91502.28
2024-01-20T01:48:29.574Z,91497.09
2024-01-20T01:50:55.989Z,91501.81
2024-01-20T01:53:22.363Z,91505.16
2024-01-20T01:55:49.014Z,91499.44
2024-01-20T01:58:15.405Z,91511.22
2024-01-20T02:00:42.088Z,91505.25
2024-01-20T02:03:10.629Z,91503.63
2024-01-20T02:05:37.065Z,91501.63
2024-01-20T02:08:03.566Z,91498.34
2024-01-20T02:10:30.009Z,91502.34
2024-01-20T02:12:56.370Z,91507.44
2024-01-20T02:15:22.832Z,91503.69
2024-01-20T02:17:50.092Z,91504.16
2024-01-20T02:20:16.506Z,91513.38
2024-01-20T02:22:42.849Z,91504.84
2024-01-20T02:25:09.415Z,91505.06
2024-01-20T02:27:35.764Z,91503.66
2024-01-20T02:30:02.212Z,91501.47
2024-01-20T02:32:28.646Z,91499.59
2024-01-20T02:34:55.023Z,91502.88
2024-01-20T02:37:21.372Z,91496.19
2024-01-20T02:39:47.708Z,91501.13
2024-01-20T02:42:14.404Z,91501.09
2024-01-20T02:44:40.895Z,91506.81
2024-01-20T02:47:07.247Z,91512.84
2024-01-20T02:49:33.818Z,91504.44
2024-01-20T02:52:00.462Z,91499.16
2024-01-20T02:54:26.855Z,91504.34
2024-01-20T02:56:53.262Z,91514.97
2024-01-20T02:59:19.654Z,91498.22
2024-01-20T03:01:46.036Z,91505.44
2024-01-20T03:04:12.508Z,91502.78
2024-01-20T03:06:38.970Z,91496.03
2024-01-20T03:09:05.539Z,91508.16
2024-01-20T03:11:32.061Z,91509.09
2024-01-20T03:13:58.563Z,91513.59
2024-01-20T03:16:24.934Z,91510.69
2024-01-20T03:18:51.295Z,91515.66
2024-01-20T03:21:17.754Z,91522.69
2024-01-20T03:23:44.124Z,91505.94
2024-01-20T03:26:11.387Z,91511.88
2024-01-20T03:28:38.708Z,91512.41
2024-01-20T03:31:05.087Z,91508.59
2024-01-20T03:33:31.705Z,91521.09
2024-01-20T03:35:58.196Z,91516.34
2024-01-20T03:38:24.562Z,91521.06
2024-01-20T03:40:50.907Z,91523.53
2024-01-20T03:43:17.373Z,91521.19
2024-01-20T03:45:44.034Z,91528.66
2024-01-20T03:48:10.455Z,91522.50
2024-01-20T03:50:37.024Z,91533.59
2024-01-20T03:53:03.825Z,91537.69
2024-01-20T03:55:30.179Z,91550.25
2024-01-20T03:57:56.600Z,91547.16
2024-01-20T04:00:22.995Z,91555.56
2024-01-20T04:02:49.437Z,91553.81
2024-01-20T04:05:15.811Z,91553.53
2024-01-20T04:07:42.170Z,91558.88
2024-01-20T04:10:09.061Z,91580.56
2024-01-20T04:12:38.934Z,91569.66
2024-01-20T04:15:05.460Z,91587.16
2024-01-20T04:17:31.952Z,91589.63
2024-01-20T04:19:58.835Z,91588.19
2024-01-20T04:22:25.262Z,91594.94
2024-01-20T04:24:51.627Z,91592.47
2024-01-20T04:27:18.011Z,91593.50
2024-01-20T04:29:44.390Z,91590.41
2024-01-20T04:32:10.949Z,91605.84
2024-01-20T04:34:37.382Z,91600.13
2024-01-20T04:37:03.803Z,91597.28
2024-01-20T04:39:30.229Z,91600.56
2024-01-20T04:41:56.636Z,91612.47
2024-01-20T04:44:23.365Z,91605.91
2024-01-20T04:46:49.741Z,91612.28
2024-01-20T04:49:16.239Z,91620.72
2024-01-20T04:51:42.658Z,91619.50
2024-01-20T04:54:09.201Z,91616.47
2024-01-20T04:56:35.652Z,91622.75
2024-01-20T04:59:01.995Z,91614.78
2024-01-20T05:01:28.357Z,91615.59
2024-01-20T05:03:54.913Z,91614.50
2024-01-20T05:06:21.432Z,91616.56
2024-01-20T05:08:47.862Z,91624.13
2024-01-20T05:11:14.217Z,91630.50
2024-01-20T05:13:40.567Z,91635.00
2024-01-20T05:16:06.989Z,91642.66
2024-01-20T05:18:33.476Z,91653.16
2024-01-20T05:20:59.991Z,91657.78
2024-01-20T05:23:26.343Z,91648.88
2024-01-20T05:25:52.712Z,91658.94
2024-01-20T05:28:19.067Z,91656.66
2024-01-20T05:30:45.422Z,91663.63
2024-01-20T05:33:11.973Z,91660.19
2024-01-20T05:35:38.961Z,91659.13
2024-01-20T05:38:05.349Z,91660.63
2024-01-20T05:40:31.693Z,91668.50
2024-01-20T05:42:58.081Z,91670.59
2024-01-20T05:45:24.584Z,91671.25
2024-01-20T05:47:51.021Z,91674.09
2024-01-20T05:50:17.420Z,91683.28
2024-01-20T05:52:43.772Z,91679.72
2024-01-20T05:55:10.158Z,91684.91
2024-01-20T05:57:36.547Z,91687.66
2024-01-20T06:00:04.367Z,91685.88
2024-01-20T06:02:31.466Z,91689.91
2024-01-20T06:04:57.863Z,91692.66
2024-01-20T06:07:24.230Z,91688.81
2024-01-20T06:09:50.604Z,91686.94
2024-01-20T06:12:17.004Z,91699.78
2024-01-20T06:14:45.047Z,91700.06
2024-01-20T06:17:11.396Z,91706.22
2024-01-20T06:19:37.979Z,91711.69
2024-01-20T06:22:04.397Z,91711.06
2024-01-20T06:24:31.193Z,91709.72
2024-01-20T06:26:57.604Z,91711.16
2024-01-20T06:29:23.983Z,91702.91
2024-01-20T06:31:50.429Z,91708.66
2024-01-20T06:34:17.332Z,91708.75
2024-01-20T06:36:43.738Z,91718.53
2024-01-20T06:39:10.159Z,91717.78
2024-01-20T06:41:37.170Z,91724.66
2024-01-20T06:44:04.309Z,91722.78
2024-01-20T06:46:30.675Z,91725.09
2024-01-20T06:48:57.302Z,91727.59
2024-01-20T06:51:26.846Z,91732.56
2024-01-20T06:53:58.320Z,91738.19
2024-01-20T06:56:25.516Z,91744.16
2024-01-20T06:58:56.307Z,91735.13
2024-01-20T07:01:23.861Z,91744.06
2024-01-20T07:03:50.313Z,91746.13
2024-01-20T07:06:16.896Z,91755.81
2024-01-20T07:08:43.383Z,91746.28
2024-01-20T07:11:11.190Z,91759.19
2024-01-20T07:13:37.697Z,91759.81
2024-01-20T07:16:16.570Z,91758.13
2024-01-20T07:18:43.327Z,91760.16
2024-01-20T07:21:09.810Z,91762.81
2024-01-20T07:23:36.191Z,91760.16
2024-01-20T07:26:02.677Z,91762.44
2024-01-20T07:28:29.084Z,91763.88
2024-01-20T07:30:55.500Z,91773.47
2024-01-20T07:33:21.996Z,91782.59
2024-01-20T07:35:48.484Z,91773.78
2024-01-20T07:38:14.885Z,91779.19
2024-01-20T07:40:41.243Z,91784.09
2024-01-20T07:43:07.787Z,91789.19
2024-01-20T07:45:34.377Z,91788.06
2024-01-20T07:48:00.880Z,91792.53
2024-01-20T07:50:27.352Z,91800.25
2024-01-20T07:52:53.714Z,91798.38
2024-01-20T07:55:20.085Z,91799.13
2024-01-20T07:57:46.463Z,91799.69
2024-01-20T08:00:12.914Z,91811.06
2024-01-20T08:02:40.294Z,91810.81
2024-01-20T08:05:07.062Z,91814.44
2024-01-20T08:07:33.920Z,91815.16
2024-01-20T08:10:00.313Z,91820.13
2024-01-20T08:12:26.719Z,91824.81
2024-01-20T08:14:53.088Z,91824.84
2024-01-20T08:17:19.424Z,91832.63
2024-01-20T08:19:50.225Z,91827.78
2024-01-20T08:22:16.969Z,91830.66
2024-01-20T08:24:43.325Z,91831.66
2024-01-20T08:27:09.744Z,91826.16
2024-01-20T08:29:36.121Z,91832.06
2024-01-20T08:32:02.485Z,91838.34
2024-01-20T08:34:28.882Z,91828.28
2024-01-20T08:36:55.274Z,91835.69
2024-01-20T08:39:21.839Z,91842.53
2024-01-20T08:41:48.636Z,91846.13
2024-01-20T08:44:15.180Z,91841.41
2024-01-20T08:46:41.646Z,91844.94
2024-01-20T08:49:08.346Z,91846.13
2024-01-20T08:51:34.812Z,91850.00
2024-01-20T08:54:01.279Z,91851.41
2024-01-20T08:56:27.726Z,91858.13
2024-01-20T08:58:54.071Z,91859.53
2024-01-20T09:01:20.475Z,91855.47
2024-01-20T09:03:46.869Z,91860.56
2024-01-20T09:06:13.905Z,91868.22
2024-01-20T09:08:40.320Z,91872.94
2024-01-20T09:11:06.702Z,91875.56
2024-01-20T09:13:33.066Z,91876.59
2024-01-20T09:15:59.564Z,91882.06
2024-01-20T09:18:26.829Z,91876.16
2024-01-20T09:20:55.242Z,91880.41
2024-01-20T09:23:21.713Z,91891.47
2024-01-20T09:25:49.056Z,91893.44
2024-01-20T09:28:15.468Z,91902.97
2024-01-20T09:30:41.902Z,91901.56
2024-01-20T09:33:08.804Z,91891.84
2024-01-20T09:35:35.282Z,91887.53
2024-01-20T09:38:01.652Z,91892.00
2024-01-20T09:40:30.201Z,91894.38
2024-01-20T09:42:56.590Z,91889.03
2024-01-20T09:45:23.492Z,91888.88
2024-01-20T09:47:49.986Z,91890.41
2024-01-20T09:50:16.555Z,91889.94
2024-01-20T09:52:47.914Z,91879.25
2024-01-20T09:55:18.166Z,91887.63
2024-01-20T09:57:44.649Z,91889.59
2024-01-20T10:00:11.259Z,91888.34
2024-01-20T10:02:37.636Z,91883.09
2024-01-20T10:05:04.488Z,91888.41
2024-01-20T10:07:31.122Z,91888.25
2024-01-20T10:09:57.749Z,91890.56
2024-01-20T10:12:27.244Z,91894.97
2024-01-20T10:14:53.727Z,91889.34
2024-01-20T10:17:20.218Z,91892.94
2024-01-20T10:19:46.758Z,91888.47
2024-01-20T10:22:13.238Z,91883.22
2024-01-20T10:24:52.413Z,91876.69
2024-01-20T10:27:26.246Z,91883.81
2024-01-20T10:29:52.680Z,91882.03
2024-01-20T10:32:19.066Z,91878.22
2024-01-20T10:34:45.592Z,91877.13
2024-01-20T10:37:12.562Z,91884.03
2024-01-20T10:39:45.515Z,91885.47
2024-01-20T10:42:15.680Z,91880.97
2024-01-20T10:44:43.163Z,91889.25
2024-01-20T10:47:15.120Z,91884.72
2024-01-20T10:49:41.898Z,91880.75
2024-01-20T10:52:08.456Z,91874.97
2024-01-20T10:54:35.284Z,91873.84
2024-01-20T10:57:01.700Z,91874.53
2024-01-20T10:59:28.087Z,91877.41
2024-01-20T11:01:54.447Z,91866.41
2024-01-20T11:04:21.215Z,91872.97
2024-01-20T11:06:47.991Z,91866.31
2024-01-20T11:09:20.574Z,91868.94
2024-01-20T11:11:58.399Z,91860.66
2024-01-20T11:14:28.773Z,91860.72
2024-01-20T11:16:56.472Z,91872.44
2024-01-20T11:19:23.320Z,91865.31
2024-01-20T11:21:49.712Z,91860.31
2024-01-20T11:24:17.191Z,91864.09
2024-01-20T11:26:43.683Z,91867.44
2024-01-20T11:29:10.294Z,91863.66
2024-01-20T11:31:36.713Z,91868.06
2024-01-20T11:34:04.275Z,91858.66
2024-01-20T11:36:31.254Z,91858.19
2024-01-20T11:38:58.644Z,91852.00
2024-01-20T11:41:25.204Z,91856.88
2024-01-20T11:43:51.632Z,91848.66
2024-01-20T11:46:18.202Z,91842.44
2024-01-20T11:48:45.537Z,91834.84
2024-01-20T11:51:12.061Z,91835.28
2024-01-20T11:53:39.388Z,91839.09
2024-01-20T11:56:06.691Z,91841.00
2024-01-20T11:58:33.097Z,91844.88
2024-01-20T12:01:00.032Z,91837.03
2024-01-20T12:03:26.842Z,91830.41
2024-01-20T12:05:53.375Z,91823.59
2024-01-20T12:08:19.890Z,91821.19
2024-01-20T12:10:46.534Z,91829.88
2024-01-20T12:13:14.643Z,91826.09
2024-01-20T12:15:41.763Z,91819.25
2024-01-20T12:18:08.302Z,91821.88
2024-01-20T12:20:34.991Z,91820.00
2024-01-20T12:23:01.559Z,91821.00
2024-01-20T12:25:28.120Z,91818.25
2024-01-20T12:27:54.501Z,91809.84
2024-01-20T12:30:21.263Z,91805.13
2024-01-20T12:32:47.849Z,91812.03
2024-01-20T12:35:14.360Z,91796.31
2024-01-20T12:37:40.814Z,91798.72
2024-01-20T12:40:07.449Z,91801.19
2024-01-20T12:42:33.936Z,91793.38
2024-01-20T12:45:00.449Z,91795.19
2024-01-20T12:47:26.814Z,91794.19
2024-01-20T12:49:56.230Z,91797.31
2024-01-20T12:52:22.640Z,91790.88
2024-01-20T12:54:49.697Z,91787.19
2024-01-20T12:57:16.260Z,91794.38
2024-01-20T12:59:42.632Z,91783.59
2024-01-20T13:02:09.113Z,91785.75
2024-01-20T13:04:35.556Z,91788.50
2024-01-20T13:07:01.991Z,91784.28
2024-01-20T13:09:28.368Z,91788.97
2024-01-20T13:11:54.749Z,91789.97
2024-01-20T13:14:21.129Z,91789.31
2024-01-20T13:16:47.551Z,91797.78
2024-01-20T13:19:13.981Z,91785.38
2024-01-20T13:21:40.457Z,91788.47
2024-01-20T13:24:06.892Z,91790.81
2024-01-20T13:26:33.264Z,91783.00
2024-01-20T13:28:59.673Z,91786.34
2024-01-20T13:31:26.037Z,91789.94
2024-01-20T13:33:52.403Z,91786.81
2024-01-20T13:36:18.906Z,91784.56
2024-01-20T13:38:45.313Z,91789.59
2024-01-20T13:41:11.730Z,91790.16
2024-01-20T13:43:38.131Z,91789.81
2024-01-20T13:46:04.856Z,91788.78
2024-01-20T13:48:31.370Z,91792.28
2024-01-20T13:50:58.893Z,91797.63
2024-01-20T13:53:25.370Z,91805.25
2024-01-20T13:55:52.283Z,91795.88
2024-01-20T13:58:18.685Z,91804.63
2024-01-20T14:00:46.023Z,91804.41
2024-01-20T14:03:12.890Z,91805.78
2024-01-20T14:05:39.417Z,91798.81
2024-01-20T14:08:05.856Z,91807.66
2024-01-20T14:10:32.272Z,91805.97
2024-01-20T14:13:00.813Z,91817.75
2024-01-20T14:15:28.549Z,91821.34
2024-01-20T14:17:55.030Z,91817.25
2024-01-20T14:20:21.552Z,91820.84
2024-01-20T14:22:47.933Z,91827.72
2024-01-20T14:25:18.025Z,91839.44
2024-01-20T14:27:44.891Z,91832.50
2024-01-20T14:30:12.054Z,91842.69
2024-01-20T14:32:38.587Z,91847.44
2024-01-20T14:35:06.180Z,91852.13
2024-01-20T14:37:32.581Z,91843.66
2024-01-20T14:39:58.944Z,91847.81
2024-01-20T14:42:25.349Z,91851.13
2024-01-20T14:44:52.057Z,91856.53
2024-01-20T14:47:18.657Z,91853.19
2024-01-20T14:49:45.113Z,91851.72
2024-01-20T14:52:11.496Z,91868.28
2024-01-20T14:54:39.646Z,91862.63
2024-01-20T14:57:06.059Z,91871.13
2024-01-20T14:59:32.472Z,91868.56
2024-01-20T15:01:58.844Z,91873.16
2024-01-20T15:04:25.397Z,91875.44
2024-01-20T15:06:51.851Z,91882.59
2024-01-20T15:09:18.326Z,91885.75
2024-01-20T15:11:44.748Z,91890.97
2024-01-20T15:14:11.152Z,91899.59
2024-01-20T15:16:37.534Z,91891.97
2024-01-20T15:19:04.717Z,91895.97
2024-01-20T15:21:31.265Z,91895.31
2024-01-20T15:23:57.679Z,91897.53
2024-01-20T15:26:24.093Z,91900.94
2024-01-20T15:28:50.471Z,91901.88
2024-01-20T15:31:16.824Z,91907.75
2024-01-20T15:33:43.341Z,91907.81
2024-01-20T15:36:10.032Z,91914.44
2024-01-20T15:38:36.406Z,91914.03
2024-01-20T15:41:02.749Z,91910.47
2024-01-20T15:43:29.452Z,91911.09
2024-01-20T15:45:55.883Z,91913.38
2024-01-20T15:48:22.288Z,91914.81
2024-01-20T15:50:48.669Z,91909.56
2024-01-20T15:53:15.037Z,91912.34
2024-01-20T15:55:41.387Z,91914.13
2024-01-20T15:58:07.748Z,91914.78
2024-01-20T16:00:35.509Z,91920.47
2024-01-20T16:03:02.815Z,91927.00
2024-01-20T16:05:30.020Z,91930.06
2024-01-20T16:07:56.436Z,91934.06
2024-01-20T16:10:22.869Z,91937.84
2024-01-20T16:12:49.223Z,91938.41
2024-01-20T16:15:16.048Z,91931.56
2024-01-20T16:17:44.111Z,91931.09
2024-01-20T16:20:10.879Z,91931.88
2024-01-20T16:22:37.256Z,91937.41
2024-01-20T16:25:03.731Z,91931.78
2024-01-20T16:27:30.145Z,91948.63
2024-01-20T16:29:56.578Z,91942.22
2024-01-20T16:32:22.986Z,91944.38
2024-01-20T16:34:49.646Z,91949.38
2024-01-20T16:37:16.149Z,91951.28
2024-01-20T16:39:42.609Z,91960.09
2024-01-20T16:42:09.639Z,91956.06
2024-01-20T16:44:36.050Z,91964.13
2024-01-20T16:47:02.389Z,91960.09
2024-01-20T16:49:28.827Z,91968.03
2024-01-20T16:51:56.938Z,91966.91
2024-01-20T16:54:25.276Z,91958.47
2024-01-20T16:56:52.548Z,91964.91
2024-01-20T16:59:18.910Z,91966.16
2024-01-20T17:01:45.336Z,91969.31
2024-01-20T17:04:11.804Z,91976.25
2024-01-20T17:06:38.281Z,91976.34
2024-01-20T17:09:04.933Z,91974.94
2024-01-20T17:11:31.333Z,91964.94
2024-01-20T17:14:03.700Z,91974.78
2024-01-20T17:16:33.751Z,91982.50
2024-01-20T17:19:00.195Z,91987.16
2024-01-20T17:21:26.688Z,91985.78
2024-01-20T17:23:53.044Z,91993.84
2024-01-20T17:26:29.035Z,91998.59
2024-01-20T17:28:56.026Z,92000.66
2024-01-20T17:31:22.727Z,92000.69
2024-01-20T17:33:50.116Z,92007.56
2024-01-20T17:36:17.417Z,92008.28
2024-01-20T17:38:43.841Z,92009.81
2024-01-20T17:41:10.497Z,92012.66
2024-01-20T17:43:37.562Z,92021.09
2024-01-20T17:46:03.921Z,92020.13
2024-01-20T17:48:30.471Z,92022.78
2024-01-20T17:50:57.256Z,92011.75
2024-01-20T17:53:23.948Z,92025.44
2024-01-20T17:55:50.300Z,92028.72
2024-01-20T17:58:16.637Z,92031.53
2024-01-20T18:00:43.471Z,92037.94
2024-01-20T18:03:10.085Z,92036.66
2024-01-20T18:05:36.694Z,92037.03
2024-01-20T18:08:03.170Z,92036.38
2024-01-20T18:10:29.540Z,92042.34
2024-01-20T18:12:56.018Z,92038.94
2024-01-20T18:15:22.398Z,92044.28
2024-01-20T18:17:48.798Z,92052.44
2024-01-20T18:20:16.176Z,92060.38
2024-01-20T18:22:42.553Z,92059.50
2024-01-20T18:25:09.015Z,92057.09
2024-01-20T18:27:35.525Z,92062.72
2024-01-20T18:30:01.951Z,92065.84
2024-01-20T18:32:29.004Z,92059.97
2024-01-20T18:34:55.538Z,92062.22
2024-01-20T18:37:21.910Z,92061.31
2024-01-20T18:39:48.561Z,92065.38
2024-01-20T18:42:18.998Z,92065.34
2024-01-20T18:44:45.384Z,92066.91
2024-01-20T18:47:11.839Z,92070.81
2024-01-20T18:49:38.306Z,92070.16
2024-01-20T18:52:04.800Z,92078.28
2024-01-20T18:54:31.224Z,92071.84
2024-01-20T18:56:58.026Z,92079.56
2024-01-20T18:59:24.378Z,92079.19
2024-01-20T19:01:50.809Z,92081.47
2024-01-20T19:04:17.429Z,92096.75
2024-01-20T19:06:43.875Z,92098.44
2024-01-20T19:09:10.464Z,92106.16
2024-01-20T19:11:36.835Z,92099.31
2024-01-20T19:14:04.921Z,92100.72
2024-01-20T19:16:33.521Z,92104.28
2024-01-20T19:18:59.938Z,92109.00
2024-01-20T19:21:26.331Z,92097.72
2024-01-20T19:23:52.771Z,92094.16
2024-01-20T19:26:19.124Z,92099.41
2024-01-20T19:28:45.469Z,92106.41
2024-01-20T19:31:12.007Z,92103.59
2024-01-20T19:33:40.762Z,92097.84
2024-01-20T19:36:07.250Z,92106.63
2024-01-20T19:38:33.651Z,92108.66
2024-01-20T19:41:00.021Z,92114.78
2024-01-20T19:43:26.441Z,92115.84
2024-01-20T19:45:52.797Z,92112.91
2024-01-20T19:48:19.379Z,92118.28
2024-01-20T19:50:46.966Z,92123.19
2024-01-20T19:53:13.315Z,92114.94
2024-01-20T19:55:41.194Z,92113.59
2024-01-20T19:58:07.590Z,92111.78
2024-01-20T20:00:34.052Z,92113.16
2024-01-20T20:03:01.006Z,92117.91
2024-01-20T20:05:27.516Z,92117.41
2024-01-20T20:07:53.922Z,92118.78
2024-01-20T20:10:20.490Z,92109.06
2024-01-20T20:12:46.876Z,92107.28
2024-01-20T20:15:13.363Z,92109.06
2024-01-20T20:17:40.090Z,92104.78
2024-01-20T20:20:06.840Z,92105.63
2024-01-20T20:22:33.186Z,92109.28
2024-01-20T20:24:59.530Z,92105.66
2024-01-20T20:27:25.958Z,92113.66
2024-01-20T20:29:52.332Z,92108.19
2024-01-20T20:32:21.676Z,92116.38
2024-01-20T20:34:48.197Z,92112.56
2024-01-20T20:37:14.688Z,92111.84
2024-01-20T20:39:41.595Z,92118.72
2024-01-20T20:42:07.984Z,92124.00
2024-01-20T20:44:34.444Z,92118.81
2024-01-20T20:47:02.164Z,92126.59
2024-01-20T20:49:29.004Z,92130.81
2024-01-20T20:51:55.413Z,92119.94
2024-01-20T20:54:21.939Z,92124.84
2024-01-20T20:56:48.296Z,92125.78
2024-01-20T20:59:14.648Z,92131.38
2024-01-20T21:01:41.539Z,92128.34
2024-01-20T21:04:11.255Z,92125.06
2024-01-20T21:06:38.070Z,92133.53
2024-01-20T21:09:04.585Z,92125.38
2024-01-20T21:11:30.963Z,92126.78
2024-01-20T21:13:57.307Z,92123.00
2024-01-20T21:16:25.112Z,92118.47
2024-01-20T21:18:52.135Z,92121.94
2024-01-20T21:21:18.595Z,92122.91
2024-01-20T21:23:45.941Z,92117.94
2024-01-20T21:26:12.325Z,92119.53
2024-01-20T21:28:38.713Z,92128.63
2024-01-20T21:31:07.022Z,92124.03
2024-01-20T21:33:33.521Z,92126.97
2024-01-20T21:36:00.734Z,92125.06
2024-01-20T21:38:27.068Z,92120.78
2024-01-20T21:40:53.427Z,92127.91
2024-01-20T21:43:19.768Z,92133.72
2024-01-20T21:45:46.270Z,92127.72
2024-01-20T21:48:13.572Z,92134.69
2024-01-20T21:50:40.133Z,92132.50
2024-01-20T21:53:06.471Z,92133.19
2024-01-20T21:55:32.838Z,92135.41
2024-01-20T21:58:01.291Z,92130.44
2024-01-20T22:00:28.025Z,92139.03
2024-01-20T22:02:54.499Z,92133.66
2024-01-20T22:05:20.913Z,92133.59
2024-01-20T22:07:47.355Z,92138.25
2024-01-20T22:10:13.688Z,92142.47
2024-01-20T22:12:40.154Z,92144.72
2024-01-20T22:15:07.293Z,92145.00
2024-01-20T22:17:33.687Z,92142.84
2024-01-20T22:20:00.068Z,92146.06
2024-01-20T22:22:26.516Z,92151.78
2024-01-20T22:24:52.962Z,92154.06
2024-01-20T22:27:19.404Z,92151.19
2024-01-20T22:29:45.790Z,92150.84
2024-01-20T22:32:12.140Z,92155.63
2024-01-20T22:34:38.597Z,92154.56
2024-01-20T22:37:05.407Z,92152.44
2024-01-20T22:39:31.889Z,92151.59
2024-01-20T22:41:58.382Z,92150.88
2024-01-20T22:44:24.761Z,92152.28
2024-01-20T22:46:51.235Z,92159.03
2024-01-20T22:49:17.803Z,92146.38
2024-01-20T22:51:44.223Z,92156.31
2024-01-20T22:54:10.590Z,92148.88
2024-01-20T22:56:36.939Z,92155.06
2024-01-20T22:59:03.969Z,92155.22
2024-01-20T23:01:31.662Z,92160.38
2024-01-20T23:03:58.189Z,92161.81
2024-01-20T23:06:24.705Z,92166.81
2024-01-20T23:08:52.336Z,92169.19
2024-01-20T23:11:19.089Z,92178.31
2024-01-20T23:13:45.449Z,92179.31
2024-01-20T23:16:12.560Z,92170.78
2024-01-20T23:18:38.992Z,92168.88
2024-01-20T23:21:05.426Z,92167.59
2024-01-20T23:23:31.767Z,92167.84
2024-01-20T23:25:59.288Z,92172.47
2024-01-20T23:28:25.636Z,92173.69
2024-01-20T23:30:52.084Z,92177.84
2024-01-20T23:33:18.635Z,92177.28
2024-01-20T23:35:46.119Z,92174.91
2024-01-20T23:38:12.490Z,92162.22
2024-01-20T23:40:38.838Z,92166.34
2024-01-20T23:43:05.205Z,92170.47
2024-01-20T23:45:31.606Z,92172.63
2024-01-20T23:47:58.032Z,92172.31
2024-01-20T23:50:24.465Z,92159.28
2024-01-20T23:52:50.794Z,92159.00
2024-01-20T23:55:17.160Z,92154.09
2024-01-20T23:57:44.420Z,92159.94
